sensor_id;sensor_type;location;lat;lon;timestamp;P1;durP1;ratioP1;P2;durP2;ratioP2
51866;SDS011;52862;52.504;13.480;2022-07-05T00:01:08;19.23;;;5.20;;
51866;SDS011;52862;52.504;13.480;2022-07-05T00:03:35;10.93;;;4.97;;
51866;SDS011;52862;52.504;13.480;2022-07-05T00:06:02;20.42;;;5.30;;
51866;SDS011;52862;52.504;13.480;2022-07-05T00:08:29;11.35;;;5.00;;
51866;SDS011;52862;52.504;13.480;2022-07-05T00:10:56;14.68;;;4.30;;
51866;SDS011;52862;52.504;13.480;2022-07-05T00:13:23;13.27;;;4.60;;
51866;SDS011;52862;52.504;13.480;2022-07-05T00:15:50;26.02;;;5.80;;
51866;SDS011;52862;52.504;13.480;2022-07-05T00:18:17;11.07;;;4.43;;
51866;SDS011;52862;52.504;13.480;2022-07-05T00:20:44;20.65;;;5.10;;
51866;SDS011;52862;52.504;13.480;2022-07-05T00:23:11;16.15;;;4.47;;
51866;SDS011;52862;52.504;13.480;2022-07-05T00:25:38;28.98;;;5.93;;
51866;SDS011;52862;52.504;13.480;2022-07-05T00:28:06;17.38;;;4.32;;
51866;SDS011;52862;52.504;13.480;2022-07-05T00:30:32;18.65;;;4.50;;
51866;SDS011;52862;52.504;13.480;2022-07-05T00:32:59;18.45;;;4.75;;
51866;SDS011;52862;52.504;13.480;2022-07-05T00:35:26;10.50;;;4.28;;
51866;SDS011;52862;52.504;13.480;2022-07-05T00:37:53;24.13;;;4.75;;
51866;SDS011;52862;52.504;13.480;2022-07-05T00:40:22;12.50;;;5.22;;
51866;SDS011;52862;52.504;13.480;2022-07-05T00:42:49;13.32;;;4.80;;
51866;SDS011;52862;52.504;13.480;2022-07-05T00:45:16;11.40;;;4.70;;
51866;SDS011;52862;52.504;13.480;2022-07-05T00:47:43;9.40;;;4.07;;
51866;SDS011;52862;52.504;13.480;2022-07-05T00:50:10;15.98;;;4.32;;
51866;SDS011;52862;52.504;13.480;2022-07-05T00:52:37;32.25;;;4.88;;
51866;SDS011;52862;52.504;13.480;2022-07-05T00:55:04;17.30;;;4.70;;
51866;SDS011;52862;52.504;13.480;2022-07-05T00:57:32;14.23;;;5.20;;
51866;SDS011;52862;52.504;13.480;2022-07-05T01:00:00;15.23;;;4.67;;
51866;SDS011;52862;52.504;13.480;2022-07-05T01:02:27;22.30;;;4.72;;
51866;SDS011;52862;52.504;13.480;2022-07-05T01:04:54;17.95;;;4.95;;
51866;SDS011;52862;52.504;13.480;2022-07-05T01:07:21;13.35;;;5.05;;
51866;SDS011;52862;52.504;13.480;2022-07-05T01:09:49;9.90;;;4.88;;
51866;SDS011;52862;52.504;13.480;2022-07-05T01:12:16;17.37;;;4.27;;
51866;SDS011;52862;52.504;13.480;2022-07-05T01:14:43;9.75;;;4.78;;
51866;SDS011;52862;52.504;13.480;2022-07-05T01:17:12;13.57;;;4.37;;
51866;SDS011;52862;52.504;13.480;2022-07-05T01:19:40;10.93;;;4.60;;
51866;SDS011;52862;52.504;13.480;2022-07-05T01:22:09;12.70;;;4.60;;
51866;SDS011;52862;52.504;13.480;2022-07-05T01:24:42;18.87;;;4.90;;
51866;SDS011;52862;52.504;13.480;2022-07-05T01:27:10;11.83;;;4.70;;
51866;SDS011;52862;52.504;13.480;2022-07-05T01:29:38;9.82;;;4.22;;
51866;SDS011;52862;52.504;13.480;2022-07-05T01:32:05;9.50;;;4.20;;
51866;SDS011;52862;52.504;13.480;2022-07-05T01:34:32;9.43;;;4.28;;
51866;SDS011;52862;52.504;13.480;2022-07-05T01:37:03;17.23;;;4.80;;
51866;SDS011;52862;52.504;13.480;2022-07-05T01:39:31;11.95;;;4.70;;
51866;SDS011;52862;52.504;13.480;2022-07-05T01:41:58;14.17;;;4.83;;
51866;SDS011;52862;52.504;13.480;2022-07-05T01:44:25;16.67;;;4.97;;
51866;SDS011;52862;52.504;13.480;2022-07-05T01:46:54;14.63;;;4.72;;
51866;SDS011;52862;52.504;13.480;2022-07-05T01:49:24;15.52;;;4.00;;
51866;SDS011;52862;52.504;13.480;2022-07-05T01:51:54;14.98;;;4.20;;
51866;SDS011;52862;52.504;13.480;2022-07-05T01:54:24;13.53;;;4.57;;
51866;SDS011;52862;52.504;13.480;2022-07-05T01:56:50;11.07;;;3.65;;
51866;SDS011;52862;52.504;13.480;2022-07-05T01:59:18;18.50;;;4.45;;
51866;SDS011;52862;52.504;13.480;2022-07-05T02:01:45;20.38;;;4.10;;
51866;SDS011;52862;52.504;13.480;2022-07-05T02:04:12;8.17;;;3.80;;
51866;SDS011;52862;52.504;13.480;2022-07-05T02:06:39;34.05;;;4.45;;
51866;SDS011;52862;52.504;13.480;2022-07-05T02:09:06;12.60;;;3.65;;
51866;SDS011;52862;52.504;13.480;2022-07-05T02:11:33;8.43;;;2.95;;
51866;SDS011;52862;52.504;13.480;2022-07-05T02:14:00;7.57;;;2.75;;
51866;SDS011;52862;52.504;13.480;2022-07-05T02:16:28;8.35;;;2.88;;
51866;SDS011;52862;52.504;13.480;2022-07-05T02:18:55;10.02;;;2.65;;
51866;SDS011;52862;52.504;13.480;2022-07-05T02:21:22;5.72;;;2.35;;
51866;SDS011;52862;52.504;13.480;2022-07-05T02:23:49;13.77;;;2.20;;
51866;SDS011;52862;52.504;13.480;2022-07-05T02:26:17;4.82;;;2.42;;
51866;SDS011;52862;52.504;13.480;2022-07-05T02:28:43;4.73;;;2.20;;
51866;SDS011;52862;52.504;13.480;2022-07-05T02:31:10;16.20;;;2.90;;
51866;SDS011;52862;52.504;13.480;2022-07-05T02:33:38;9.83;;;2.47;;
51866;SDS011;52862;52.504;13.480;2022-07-05T02:36:05;6.40;;;2.30;;
51866;SDS011;52862;52.504;13.480;2022-07-05T02:38:34;7.20;;;2.40;;
51866;SDS011;52862;52.504;13.480;2022-07-05T02:41:03;7.97;;;2.33;;
51866;SDS011;52862;52.504;13.480;2022-07-05T02:43:30;7.57;;;2.10;;
51866;SDS011;52862;52.504;13.480;2022-07-05T02:45:58;8.93;;;2.03;;
51866;SDS011;52862;52.504;13.480;2022-07-05T02:48:25;7.72;;;2.05;;
51866;SDS011;52862;52.504;13.480;2022-07-05T02:50:52;9.10;;;1.97;;
51866;SDS011;52862;52.504;13.480;2022-07-05T02:53:19;9.50;;;2.20;;
51866;SDS011;52862;52.504;13.480;2022-07-05T02:55:46;14.37;;;2.33;;
51866;SDS011;52862;52.504;13.480;2022-07-05T02:58:13;7.03;;;2.15;;
51866;SDS011;52862;52.504;13.480;2022-07-05T03:00:39;7.40;;;2.00;;
51866;SDS011;52862;52.504;13.480;2022-07-05T03:03:06;6.33;;;2.03;;
51866;SDS011;52862;52.504;13.480;2022-07-05T03:05:33;10.00;;;2.17;;
51866;SDS011;52862;52.504;13.480;2022-07-05T03:08:01;6.33;;;1.97;;
51866;SDS011;52862;52.504;13.480;2022-07-05T03:10:28;5.07;;;1.80;;
51866;SDS011;52862;52.504;13.480;2022-07-05T03:12:54;8.63;;;2.03;;
51866;SDS011;52862;52.504;13.480;2022-07-05T03:15:21;5.60;;;1.90;;
51866;SDS011;52862;52.504;13.480;2022-07-05T03:17:48;7.88;;;2.25;;
51866;SDS011;52862;52.504;13.480;2022-07-05T03:20:15;7.67;;;2.77;;
51866;SDS011;52862;52.504;13.480;2022-07-05T03:22:42;6.53;;;2.07;;
51866;SDS011;52862;52.504;13.480;2022-07-05T03:25:12;7.10;;;2.10;;
51866;SDS011;52862;52.504;13.480;2022-07-05T03:27:39;8.63;;;2.30;;
51866;SDS011;52862;52.504;13.480;2022-07-05T03:30:06;14.00;;;2.57;;
51866;SDS011;52862;52.504;13.480;2022-07-05T03:32:33;10.13;;;1.92;;
51866;SDS011;52862;52.504;13.480;2022-07-05T03:35:00;5.53;;;1.63;;
51866;SDS011;52862;52.504;13.480;2022-07-05T03:37:27;8.67;;;2.10;;
51866;SDS011;52862;52.504;13.480;2022-07-05T03:39:54;6.47;;;2.10;;
51866;SDS011;52862;52.504;13.480;2022-07-05T03:42:21;6.67;;;2.20;;
51866;SDS011;52862;52.504;13.480;2022-07-05T03:44:48;9.90;;;2.00;;
51866;SDS011;52862;52.504;13.480;2022-07-05T03:47:15;7.70;;;2.37;;
51866;SDS011;52862;52.504;13.480;2022-07-05T03:49:42;13.87;;;2.50;;
51866;SDS011;52862;52.504;13.480;2022-07-05T03:52:09;5.93;;;2.20;;
51866;SDS011;52862;52.504;13.480;2022-07-05T03:54:36;4.83;;;1.83;;
51866;SDS011;52862;52.504;13.480;2022-07-05T03:57:03;7.63;;;2.13;;
51866;SDS011;52862;52.504;13.480;2022-07-05T03:59:31;8.37;;;2.17;;
51866;SDS011;52862;52.504;13.480;2022-07-05T04:01:58;4.83;;;1.90;;
51866;SDS011;52862;52.504;13.480;2022-07-05T04:04:25;5.23;;;2.10;;
51866;SDS011;52862;52.504;13.480;2022-07-05T04:06:53;12.97;;;3.07;;
51866;SDS011;52862;52.504;13.480;2022-07-05T04:09:20;7.30;;;2.03;;
51866;SDS011;52862;52.504;13.480;2022-07-05T04:11:47;9.25;;;2.67;;
51866;SDS011;52862;52.504;13.480;2022-07-05T04:14:13;6.27;;;2.13;;
51866;SDS011;52862;52.504;13.480;2022-07-05T04:16:41;15.93;;;1.90;;
51866;SDS011;52862;52.504;13.480;2022-07-05T04:19:08;9.70;;;1.90;;
51866;SDS011;52862;52.504;13.480;2022-07-05T04:21:35;13.83;;;2.10;;
51866;SDS011;52862;52.504;13.480;2022-07-05T04:24:02;22.27;;;1.83;;
51866;SDS011;52862;52.504;13.480;2022-07-05T04:26:29;6.27;;;2.03;;
51866;SDS011;52862;52.504;13.480;2022-07-05T04:28:56;11.37;;;1.80;;
51866;SDS011;52862;52.504;13.480;2022-07-05T04:31:23;8.77;;;2.00;;
51866;SDS011;52862;52.504;13.480;2022-07-05T04:33:50;6.37;;;1.43;;
51866;SDS011;52862;52.504;13.480;2022-07-05T04:36:18;12.10;;;2.00;;
51866;SDS011;52862;52.504;13.480;2022-07-05T04:38:45;10.10;;;2.03;;
51866;SDS011;52862;52.504;13.480;2022-07-05T04:41:12;6.60;;;2.20;;
51866;SDS011;52862;52.504;13.480;2022-07-05T04:43:39;18.73;;;2.03;;
51866;SDS011;52862;52.504;13.480;2022-07-05T04:46:06;7.60;;;1.90;;
51866;SDS011;52862;52.504;13.480;2022-07-05T04:48:33;9.87;;;1.60;;
51866;SDS011;52862;52.504;13.480;2022-07-05T04:51:00;15.80;;;1.92;;
51866;SDS011;52862;52.504;13.480;2022-07-05T04:53:27;6.40;;;1.58;;
51866;SDS011;52862;52.504;13.480;2022-07-05T04:55:54;11.23;;;1.83;;
51866;SDS011;52862;52.504;13.480;2022-07-05T04:58:21;6.63;;;1.80;;
51866;SDS011;52862;52.504;13.480;2022-07-05T05:00:48;13.50;;;1.83;;
51866;SDS011;52862;52.504;13.480;2022-07-05T05:03:14;11.85;;;1.60;;
51866;SDS011;52862;52.504;13.480;2022-07-05T05:05:41;8.97;;;1.87;;
51866;SDS011;52862;52.504;13.480;2022-07-05T05:08:09;9.65;;;2.08;;
51866;SDS011;52862;52.504;13.480;2022-07-05T05:10:35;8.13;;;2.00;;
51866;SDS011;52862;52.504;13.480;2022-07-05T05:13:02;8.80;;;1.42;;
51866;SDS011;52862;52.504;13.480;2022-07-05T05:15:29;7.00;;;1.80;;
51866;SDS011;52862;52.504;13.480;2022-07-05T05:17:56;12.70;;;1.88;;
51866;SDS011;52862;52.504;13.480;2022-07-05T05:20:22;4.85;;;1.70;;
51866;SDS011;52862;52.504;13.480;2022-07-05T05:22:49;8.00;;;1.52;;
51866;SDS011;52862;52.504;13.480;2022-07-05T05:25:17;8.93;;;1.70;;
51866;SDS011;52862;52.504;13.480;2022-07-05T05:27:45;10.23;;;1.88;;
51866;SDS011;52862;52.504;13.480;2022-07-05T05:30:14;5.70;;;1.60;;
51866;SDS011;52862;52.504;13.480;2022-07-05T05:32:42;8.75;;;1.70;;
51866;SDS011;52862;52.504;13.480;2022-07-05T05:35:09;9.75;;;1.63;;
51866;SDS011;52862;52.504;13.480;2022-07-05T05:37:47;8.52;;;1.58;;
51866;SDS011;52862;52.504;13.480;2022-07-05T05:40:14;4.85;;;1.52;;
51866;SDS011;52862;52.504;13.480;2022-07-05T05:42:42;17.00;;;1.67;;
51866;SDS011;52862;52.504;13.480;2022-07-05T05:45:09;10.25;;;1.63;;
51866;SDS011;52862;52.504;13.480;2022-07-05T05:47:42;16.30;;;1.63;;
51866;SDS011;52862;52.504;13.480;2022-07-05T05:50:13;11.88;;;1.65;;
51866;SDS011;52862;52.504;13.480;2022-07-05T05:52:44;11.82;;;1.30;;
51866;SDS011;52862;52.504;13.480;2022-07-05T05:55:11;6.70;;;1.45;;
51866;SDS011;52862;52.504;13.480;2022-07-05T05:57:38;11.60;;;1.73;;
51866;SDS011;52862;52.504;13.480;2022-07-05T06:00:06;4.25;;;1.58;;
51866;SDS011;52862;52.504;13.480;2022-07-05T06:02:34;8.50;;;1.60;;
51866;SDS011;52862;52.504;13.480;2022-07-05T06:05:01;9.43;;;1.63;;
51866;SDS011;52862;52.504;13.480;2022-07-05T06:07:29;6.95;;;1.25;;
51866;SDS011;52862;52.504;13.480;2022-07-05T06:09:55;6.00;;;1.48;;
51866;SDS011;52862;52.504;13.480;2022-07-05T06:12:22;8.05;;;1.77;;
51866;SDS011;52862;52.504;13.480;2022-07-05T06:14:49;7.68;;;1.40;;
51866;SDS011;52862;52.504;13.480;2022-07-05T06:17:17;7.22;;;1.20;;
51866;SDS011;52862;52.504;13.480;2022-07-05T06:19:44;9.55;;;1.77;;
51866;SDS011;52862;52.504;13.480;2022-07-05T06:22:11;14.55;;;1.60;;
51866;SDS011;52862;52.504;13.480;2022-07-05T06:24:38;13.65;;;1.52;;
51866;SDS011;52862;52.504;13.480;2022-07-05T06:27:05;4.82;;;1.67;;
51866;SDS011;52862;52.504;13.480;2022-07-05T06:29:31;3.85;;;1.60;;
51866;SDS011;52862;52.504;13.480;2022-07-05T06:31:58;11.45;;;1.33;;
51866;SDS011;52862;52.504;13.480;2022-07-05T06:34:26;12.38;;;1.50;;
51866;SDS011;52862;52.504;13.480;2022-07-05T06:36:53;12.80;;;2.33;;
51866;SDS011;52862;52.504;13.480;2022-07-05T06:39:20;8.15;;;1.67;;
51866;SDS011;52862;52.504;13.480;2022-07-05T06:41:50;5.63;;;1.63;;
51866;SDS011;52862;52.504;13.480;2022-07-05T06:44:16;6.55;;;1.58;;
51866;SDS011;52862;52.504;13.480;2022-07-05T06:47:01;5.72;;;1.23;;
51866;SDS011;52862;52.504;13.480;2022-07-05T06:49:29;7.75;;;1.45;;
51866;SDS011;52862;52.504;13.480;2022-07-05T06:51:56;4.22;;;1.42;;
51866;SDS011;52862;52.504;13.480;2022-07-05T06:54:23;12.52;;;1.35;;
51866;SDS011;52862;52.504;13.480;2022-07-05T06:57:09;10.85;;;1.52;;
51866;SDS011;52862;52.504;13.480;2022-07-05T06:59:56;5.00;;;1.83;;
51866;SDS011;52862;52.504;13.480;2022-07-05T07:02:24;3.70;;;1.45;;
51866;SDS011;52862;52.504;13.480;2022-07-05T07:04:52;16.15;;;1.67;;
51866;SDS011;52862;52.504;13.480;2022-07-05T07:07:37;7.22;;;1.80;;
51866;SDS011;52862;52.504;13.480;2022-07-05T07:10:22;8.02;;;1.38;;
51866;SDS011;52862;52.504;13.480;2022-07-05T07:12:55;6.85;;;1.65;;
51866;SDS011;52862;52.504;13.480;2022-07-05T07:15:21;13.38;;;1.92;;
51866;SDS011;52862;52.504;13.480;2022-07-05T07:17:48;7.97;;;1.90;;
51866;SDS011;52862;52.504;13.480;2022-07-05T07:20:16;9.68;;;1.70;;
51866;SDS011;52862;52.504;13.480;2022-07-05T07:22:43;4.78;;;1.67;;
51866;SDS011;52862;52.504;13.480;2022-07-05T07:25:10;5.60;;;1.50;;
51866;SDS011;52862;52.504;13.480;2022-07-05T07:27:41;4.25;;;1.30;;
51866;SDS011;52862;52.504;13.480;2022-07-05T07:30:09;4.15;;;1.50;;
51866;SDS011;52862;52.504;13.480;2022-07-05T07:32:37;13.85;;;1.50;;
51866;SDS011;52862;52.504;13.480;2022-07-05T07:35:04;13.60;;;1.73;;
51866;SDS011;52862;52.504;13.480;2022-07-05T07:37:32;6.05;;;1.60;;
51866;SDS011;52862;52.504;13.480;2022-07-05T07:39:59;13.52;;;1.80;;
51866;SDS011;52862;52.504;13.480;2022-07-05T07:42:27;9.02;;;1.48;;
51866;SDS011;52862;52.504;13.480;2022-07-05T07:44:54;19.02;;;2.38;;
51866;SDS011;52862;52.504;13.480;2022-07-05T07:47:21;17.80;;;2.00;;
51866;SDS011;52862;52.504;13.480;2022-07-05T07:49:48;9.55;;;2.03;;
51866;SDS011;52862;52.504;13.480;2022-07-05T07:52:14;11.50;;;1.70;;
51866;SDS011;52862;52.504;13.480;2022-07-05T07:54:42;6.55;;;1.67;;
51866;SDS011;52862;52.504;13.480;2022-07-05T07:57:10;7.18;;;1.50;;
51866;SDS011;52862;52.504;13.480;2022-07-05T07:59:40;8.00;;;2.15;;
51866;SDS011;52862;52.504;13.480;2022-07-05T08:02:08;10.45;;;2.10;;
51866;SDS011;52862;52.504;13.480;2022-07-05T08:04:34;8.50;;;1.73;;
51866;SDS011;52862;52.504;13.480;2022-07-05T08:07:01;8.07;;;1.92;;
51866;SDS011;52862;52.504;13.480;2022-07-05T08:09:29;14.80;;;2.00;;
51866;SDS011;52862;52.504;13.480;2022-07-05T08:11:57;18.42;;;2.38;;
51866;SDS011;52862;52.504;13.480;2022-07-05T08:14:23;6.30;;;1.85;;
51866;SDS011;52862;52.504;13.480;2022-07-05T08:16:51;9.98;;;1.77;;
51866;SDS011;52862;52.504;13.480;2022-07-05T08:19:18;9.73;;;1.83;;
51866;SDS011;52862;52.504;13.480;2022-07-05T08:22:04;14.52;;;2.05;;
51866;SDS011;52862;52.504;13.480;2022-07-05T08:24:34;7.00;;;1.55;;
51866;SDS011;52862;52.504;13.480;2022-07-05T08:27:02;7.82;;;1.38;;
51866;SDS011;52862;52.504;13.480;2022-07-05T08:29:30;7.28;;;1.70;;
51866;SDS011;52862;52.504;13.480;2022-07-05T08:31:57;5.38;;;1.50;;
51866;SDS011;52862;52.504;13.480;2022-07-05T08:34:24;7.70;;;1.45;;
51866;SDS011;52862;52.504;13.480;2022-07-05T08:36:51;6.25;;;1.40;;
51866;SDS011;52862;52.504;13.480;2022-07-05T08:39:17;6.97;;;1.60;;
51866;SDS011;52862;52.504;13.480;2022-07-05T08:41:47;6.20;;;1.60;;
51866;SDS011;52862;52.504;13.480;2022-07-05T08:44:16;9.65;;;1.38;;
51866;SDS011;52862;52.504;13.480;2022-07-05T08:46:45;5.10;;;1.88;;
51866;SDS011;52862;52.504;13.480;2022-07-05T08:49:14;8.40;;;1.40;;
51866;SDS011;52862;52.504;13.480;2022-07-05T08:51:41;5.88;;;1.42;;
51866;SDS011;52862;52.504;13.480;2022-07-05T08:54:09;4.18;;;1.50;;
51866;SDS011;52862;52.504;13.480;2022-07-05T08:56:37;12.10;;;2.08;;
51866;SDS011;52862;52.504;13.480;2022-07-05T08:59:27;3.58;;;1.48;;
51866;SDS011;52862;52.504;13.480;2022-07-05T09:01:54;5.63;;;1.90;;
51866;SDS011;52862;52.504;13.480;2022-07-05T09:04:23;7.13;;;1.70;;
51866;SDS011;52862;52.504;13.480;2022-07-05T09:06:55;5.90;;;1.48;;
51866;SDS011;52862;52.504;13.480;2022-07-05T09:09:26;13.25;;;1.67;;
51866;SDS011;52862;52.504;13.480;2022-07-05T09:11:53;15.05;;;1.83;;
51866;SDS011;52862;52.504;13.480;2022-07-05T09:14:41;5.90;;;1.55;;
51866;SDS011;52862;52.504;13.480;2022-07-05T09:17:09;8.35;;;1.58;;
51866;SDS011;52862;52.504;13.480;2022-07-05T09:19:37;12.93;;;1.95;;
51866;SDS011;52862;52.504;13.480;2022-07-05T09:22:07;6.45;;;2.05;;
51866;SDS011;52862;52.504;13.480;2022-07-05T09:24:42;11.25;;;1.83;;
51866;SDS011;52862;52.504;13.480;2022-07-05T09:27:11;10.60;;;1.90;;
51866;SDS011;52862;52.504;13.480;2022-07-05T09:29:39;20.75;;;1.88;;
51866;SDS011;52862;52.504;13.480;2022-07-05T09:32:28;9.50;;;1.40;;
51866;SDS011;52862;52.504;13.480;2022-07-05T09:34:56;4.13;;;1.58;;
51866;SDS011;52862;52.504;13.480;2022-07-05T09:37:25;5.25;;;1.52;;
51866;SDS011;52862;52.504;13.480;2022-07-05T09:40:09;18.20;;;2.03;;
51866;SDS011;52862;52.504;13.480;2022-07-05T09:42:45;11.43;;;2.20;;
51866;SDS011;52862;52.504;13.480;2022-07-05T09:45:23;7.25;;;1.75;;
51866;SDS011;52862;52.504;13.480;2022-07-05T09:47:54;6.85;;;1.98;;
51866;SDS011;52862;52.504;13.480;2022-07-05T09:50:41;6.40;;;1.80;;
51866;SDS011;52862;52.504;13.480;2022-07-05T09:53:27;5.82;;;1.83;;
51866;SDS011;52862;52.504;13.480;2022-07-05T09:56:10;8.98;;;1.70;;
51866;SDS011;52862;52.504;13.480;2022-07-05T09:58:37;6.38;;;1.70;;
51866;SDS011;52862;52.504;13.480;2022-07-05T10:01:06;4.18;;;1.80;;
51866;SDS011;52862;52.504;13.480;2022-07-05T10:03:53;14.77;;;2.00;;
51866;SDS011;52862;52.504;13.480;2022-07-05T10:06:20;4.18;;;1.77;;
51866;SDS011;52862;52.504;13.480;2022-07-05T10:08:48;7.88;;;1.88;;
51866;SDS011;52862;52.504;13.480;2022-07-05T10:11:16;4.80;;;1.63;;
51866;SDS011;52862;52.504;13.480;2022-07-05T10:13:44;6.63;;;1.80;;
51866;SDS011;52862;52.504;13.480;2022-07-05T10:16:15;7.13;;;1.90;;
51866;SDS011;52862;52.504;13.480;2022-07-05T10:18:43;11.80;;;2.00;;
51866;SDS011;52862;52.504;13.480;2022-07-05T10:21:12;12.20;;;1.77;;
51866;SDS011;52862;52.504;13.480;2022-07-05T10:23:42;6.63;;;1.83;;
51866;SDS011;52862;52.504;13.480;2022-07-05T10:26:10;12.80;;;1.95;;
51866;SDS011;52862;52.504;13.480;2022-07-05T10:28:38;5.43;;;1.92;;
51866;SDS011;52862;52.504;13.480;2022-07-05T10:31:06;7.60;;;1.77;;
51866;SDS011;52862;52.504;13.480;2022-07-05T10:33:35;12.45;;;2.50;;
51866;SDS011;52862;52.504;13.480;2022-07-05T10:36:03;14.27;;;2.20;;
51866;SDS011;52862;52.504;13.480;2022-07-05T10:38:31;10.95;;;1.83;;
51866;SDS011;52862;52.504;13.480;2022-07-05T10:41:02;5.03;;;2.17;;
51866;SDS011;52862;52.504;13.480;2022-07-05T10:43:31;3.88;;;1.83;;
51866;SDS011;52862;52.504;13.480;2022-07-05T10:45:58;11.45;;;2.05;;
51866;SDS011;52862;52.504;13.480;2022-07-05T10:48:26;10.23;;;1.90;;
51866;SDS011;52862;52.504;13.480;2022-07-05T10:50:55;17.55;;;1.63;;
51866;SDS011;52862;52.504;13.480;2022-07-05T10:53:23;10.70;;;2.92;;
51866;SDS011;52862;52.504;13.480;2022-07-05T10:55:53;17.83;;;1.80;;
51866;SDS011;52862;52.504;13.480;2022-07-05T10:58:31;3.78;;;1.77;;
51866;SDS011;52862;52.504;13.480;2022-07-05T11:04:15;10.27;;;1.63;;
51866;SDS011;52862;52.504;13.480;2022-07-05T11:06:55;7.80;;;1.90;;
51866;SDS011;52862;52.504;13.480;2022-07-05T11:09:23;11.75;;;1.70;;
51866;SDS011;52862;52.504;13.480;2022-07-05T11:14:54;9.68;;;2.20;;
51866;SDS011;52862;52.504;13.480;2022-07-05T11:17:34;8.25;;;1.88;;
51866;SDS011;52862;52.504;13.480;2022-07-05T11:20:26;7.80;;;1.50;;
51866;SDS011;52862;52.504;13.480;2022-07-05T11:23:03;5.40;;;1.67;;
51866;SDS011;52862;52.504;13.480;2022-07-05T11:25:33;8.50;;;1.63;;
51866;SDS011;52862;52.504;13.480;2022-07-05T11:28:05;6.88;;;1.50;;
51866;SDS011;52862;52.504;13.480;2022-07-05T11:30:46;12.27;;;1.60;;
51866;SDS011;52862;52.504;13.480;2022-07-05T11:33:29;10.02;;;1.80;;
51866;SDS011;52862;52.504;13.480;2022-07-05T11:36:19;3.95;;;1.58;;
51866;SDS011;52862;52.504;13.480;2022-07-05T11:39:11;9.43;;;1.40;;
51866;SDS011;52862;52.504;13.480;2022-07-05T11:41:44;7.38;;;1.73;;
51866;SDS011;52862;52.504;13.480;2022-07-05T11:44:13;8.48;;;1.85;;
51866;SDS011;52862;52.504;13.480;2022-07-05T11:46:41;8.02;;;1.70;;
51866;SDS011;52862;52.504;13.480;2022-07-05T11:49:18;6.45;;;1.90;;
51866;SDS011;52862;52.504;13.480;2022-07-05T11:51:52;14.07;;;2.40;;
51866;SDS011;52862;52.504;13.480;2022-07-05T11:54:22;5.63;;;1.42;;
51866;SDS011;52862;52.504;13.480;2022-07-05T11:56:49;11.73;;;2.70;;
51866;SDS011;52862;52.504;13.480;2022-07-05T11:59:18;7.10;;;1.73;;
51866;SDS011;52862;52.504;13.480;2022-07-05T12:01:45;5.25;;;1.77;;
51866;SDS011;52862;52.504;13.480;2022-07-05T12:04:20;7.90;;;1.63;;
51866;SDS011;52862;52.504;13.480;2022-07-05T12:06:47;7.05;;;1.70;;
51866;SDS011;52862;52.504;13.480;2022-07-05T12:09:21;2.95;;;1.55;;
51866;SDS011;52862;52.504;13.480;2022-07-05T12:11:50;5.88;;;1.60;;
51866;SDS011;52862;52.504;13.480;2022-07-05T12:14:47;8.32;;;1.60;;
51866;SDS011;52862;52.504;13.480;2022-07-05T12:17:15;9.10;;;1.67;;
51866;SDS011;52862;52.504;13.480;2022-07-05T12:19:50;5.18;;;1.40;;
51866;SDS011;52862;52.504;13.480;2022-07-05T12:22:27;14.07;;;1.67;;
51866;SDS011;52862;52.504;13.480;2022-07-05T12:24:54;3.38;;;1.50;;
51866;SDS011;52862;52.504;13.480;2022-07-05T12:27:23;14.02;;;1.77;;
51866;SDS011;52862;52.504;13.480;2022-07-05T12:29:51;5.55;;;1.35;;
51866;SDS011;52862;52.504;13.480;2022-07-05T12:32:18;10.30;;;1.90;;
51866;SDS011;52862;52.504;13.480;2022-07-05T12:34:45;6.63;;;1.50;;
51866;SDS011;52862;52.504;13.480;2022-07-05T12:37:19;9.18;;;1.67;;
51866;SDS011;52862;52.504;13.480;2022-07-05T12:39:46;14.52;;;1.80;;
51866;SDS011;52862;52.504;13.480;2022-07-05T12:45:07;5.25;;;1.75;;
51866;SDS011;52862;52.504;13.480;2022-07-05T12:47:36;9.55;;;1.65;;
51866;SDS011;52862;52.504;13.480;2022-07-05T12:50:13;6.25;;;1.50;;
51866;SDS011;52862;52.504;13.480;2022-07-05T12:52:53;2.78;;;1.55;;
51866;SDS011;52862;52.504;13.480;2022-07-05T12:55:22;4.93;;;2.08;;
51866;SDS011;52862;52.504;13.480;2022-07-05T12:58:07;7.38;;;1.33;;
51866;SDS011;52862;52.504;13.480;2022-07-05T13:00:35;8.82;;;1.50;;
51866;SDS011;52862;52.504;13.480;2022-07-05T13:03:02;8.50;;;1.10;;
51866;SDS011;52862;52.504;13.480;2022-07-05T13:05:29;5.38;;;1.52;;
51866;SDS011;52862;52.504;13.480;2022-07-05T13:07:55;3.15;;;1.27;;
51866;SDS011;52862;52.504;13.480;2022-07-05T13:10:23;9.73;;;1.73;;
51866;SDS011;52862;52.504;13.480;2022-07-05T13:12:51;11.98;;;1.70;;
51866;SDS011;52862;52.504;13.480;2022-07-05T13:15:18;8.98;;;1.70;;
51866;SDS011;52862;52.504;13.480;2022-07-05T13:17:46;4.25;;;1.30;;
51866;SDS011;52862;52.504;13.480;2022-07-05T13:20:14;9.82;;;1.30;;
51866;SDS011;52862;52.504;13.480;2022-07-05T13:22:43;9.10;;;1.63;;
51866;SDS011;52862;52.504;13.480;2022-07-05T13:25:10;10.02;;;1.40;;
51866;SDS011;52862;52.504;13.480;2022-07-05T13:27:37;6.25;;;1.88;;
51866;SDS011;52862;52.504;13.480;2022-07-05T13:30:04;4.28;;;1.70;;
51866;SDS011;52862;52.504;13.480;2022-07-05T13:32:32;6.50;;;1.40;;
51866;SDS011;52862;52.504;13.480;2022-07-05T13:35:00;10.10;;;1.33;;
51866;SDS011;52862;52.504;13.480;2022-07-05T13:37:27;11.57;;;1.58;;
51866;SDS011;52862;52.504;13.480;2022-07-05T13:39:54;6.55;;;1.33;;
51866;SDS011;52862;52.504;13.480;2022-07-05T13:42:20;11.98;;;1.50;;
51866;SDS011;52862;52.504;13.480;2022-07-05T13:44:47;13.45;;;1.30;;
51866;SDS011;52862;52.504;13.480;2022-07-05T13:47:14;7.28;;;1.50;;
51866;SDS011;52862;52.504;13.480;2022-07-05T13:49:41;14.00;;;1.70;;
51866;SDS011;52862;52.504;13.480;2022-07-05T13:52:09;4.90;;;1.88;;
51866;SDS011;52862;52.504;13.480;2022-07-05T13:54:35;7.65;;;1.67;;
51866;SDS011;52862;52.504;13.480;2022-07-05T13:57:03;17.02;;;1.80;;
51866;SDS011;52862;52.504;13.480;2022-07-05T13:59:31;4.65;;;1.67;;
51866;SDS011;52862;52.504;13.480;2022-07-05T14:01:57;5.35;;;1.50;;
51866;SDS011;52862;52.504;13.480;2022-07-05T14:04:24;7.90;;;1.58;;
51866;SDS011;52862;52.504;13.480;2022-07-05T14:06:55;6.43;;;1.55;;
51866;SDS011;52862;52.504;13.480;2022-07-05T14:09:23;4.53;;;1.70;;
51866;SDS011;52862;52.504;13.480;2022-07-05T14:11:54;5.97;;;1.77;;
51866;SDS011;52862;52.504;13.480;2022-07-05T14:14:21;6.72;;;1.42;;
51866;SDS011;52862;52.504;13.480;2022-07-05T14:16:48;9.93;;;1.75;;
51866;SDS011;52862;52.504;13.480;2022-07-05T14:19:15;3.88;;;1.40;;
51866;SDS011;52862;52.504;13.480;2022-07-05T14:21:42;3.60;;;1.40;;
51866;SDS011;52862;52.504;13.480;2022-07-05T14:24:12;10.35;;;2.08;;
51866;SDS011;52862;52.504;13.480;2022-07-05T14:26:40;4.85;;;1.40;;
51866;SDS011;52862;52.504;13.480;2022-07-05T14:29:07;6.18;;;1.50;;
51866;SDS011;52862;52.504;13.480;2022-07-05T14:31:35;5.28;;;1.48;;
51866;SDS011;52862;52.504;13.480;2022-07-05T14:34:03;3.33;;;1.50;;
51866;SDS011;52862;52.504;13.480;2022-07-05T14:36:30;6.25;;;1.42;;
51866;SDS011;52862;52.504;13.480;2022-07-05T14:38:57;6.38;;;1.67;;
51866;SDS011;52862;52.504;13.480;2022-07-05T14:41:26;6.95;;;1.40;;
51866;SDS011;52862;52.504;13.480;2022-07-05T14:43:54;3.70;;;1.25;;
51866;SDS011;52862;52.504;13.480;2022-07-05T14:46:22;9.60;;;1.17;;
51866;SDS011;52862;52.504;13.480;2022-07-05T14:48:48;5.60;;;1.45;;